createdAt,value
2022-08-01T00:00:50.737Z,21.80
2022-08-01T00:03:52.613Z,21.80
2022-08-01T00:06:54.624Z,21.80
2022-08-01T00:09:56.411Z,21.80
2022-08-01T00:12:58.159Z,21.80
2022-08-01T00:16:00.076Z,21.80
2022-08-01T00:19:02.059Z,21.80
2022-08-01T00:22:04.165Z,21.70
2022-08-01T00:25:07.381Z,21.70
2022-08-01T00:28:09.782Z,21.70
2022-08-01T00:31:11.619Z,21.70
2022-08-01T00:34:13.789Z,21.60
2022-08-01T00:37:16.156Z,21.60
2022-08-01T00:40:18.107Z,21.60
2022-08-01T00:43:20.018Z,21.60
2022-08-01T00:46:23.387Z,21.50
2022-08-01T00:49:25.159Z,21.50
2022-08-01T00:52:27.099Z,21.50
2022-08-01T00:55:30.376Z,21.50
2022-08-01T00:58:33.330Z,21.50
2022-08-01T01:01:39.162Z,21.50
2022-08-01T01:04:42.054Z,21.50
2022-08-01T01:08:07.948Z,21.50
2022-08-01T01:11:26.379Z,21.50
2022-08-01T01:14:47.692Z,21.50
2022-08-01T01:18:01.111Z,21.40
2022-08-01T01:21:15.008Z,21.40
2022-08-01T01:24:41.756Z,21.40
2022-08-01T01:28:01.816Z,21.40
2022-08-01T01:31:08.187Z,21.30
2022-08-01T01:34:16.775Z,21.30
2022-08-01T01:37:24.126Z,21.30
2022-08-01T01:40:27.134Z,21.30
2022-08-01T01:43:33.478Z,21.20
2022-08-01T01:46:37.684Z,21.20
2022-08-01T01:49:42.603Z,21.20
2022-08-01T01:52:46.328Z,21.20
2022-08-01T01:55:53.033Z,21.20
2022-08-01T01:58:58.769Z,21.20
2022-08-01T02:02:05.823Z,21.20
2022-08-01T02:05:11.047Z,21.30
2022-08-01T02:08:16.634Z,21.20
2022-08-01T02:11:19.339Z,21.20
2022-08-01T02:14:22.424Z,21.20
2022-08-01T02:17:25.663Z,21.20
2022-08-01T02:20:30.321Z,21.20
2022-08-01T02:23:38.191Z,21.20
2022-08-01T02:26:47.560Z,21.20
2022-08-01T02:30:01.315Z,21.20
2022-08-01T02:33:15.585Z,21.20
2022-08-01T02:36:29.705Z,21.30
2022-08-01T02:39:37.829Z,21.30
2022-08-01T02:42:43.882Z,21.30
2022-08-01T02:45:52.661Z,21.30
2022-08-01T02:48:56.531Z,21.20
2022-08-01T02:52:00.422Z,21.20
2022-08-01T02:55:03.027Z,21.20
2022-08-01T02:58:07.689Z,21.20
2022-08-01T03:01:11.478Z,21.20
2022-08-01T03:04:14.376Z,21.10
2022-08-01T03:07:17.611Z,21.10
2022-08-01T03:10:22.296Z,21.20
2022-08-01T03:13:26.450Z,21.10
2022-08-01T03:16:29.313Z,21.10
2022-08-01T03:19:32.563Z,21.10
2022-08-01T03:22:35.927Z,21.10
2022-08-01T03:25:39.934Z,21.10
2022-08-01T03:28:42.778Z,21.10
2022-08-01T03:31:46.183Z,21.10
2022-08-01T03:34:48.647Z,21.10
2022-08-01T03:38:15.245Z,21.10
2022-08-01T03:41:22.208Z,21.10
2022-08-01T03:44:28.476Z,21.10
2022-08-01T03:47:34.360Z,21.10
2022-08-01T03:50:45.015Z,21.10
2022-08-01T03:53:48.369Z,21.10
2022-08-01T03:56:50.865Z,21.10
2022-08-01T03:59:53.501Z,21.00
2022-08-01T04:02:55.561Z,21.10
2022-08-01T04:05:57.378Z,21.10
2022-08-01T04:08:59.610Z,21.00
2022-08-01T04:12:01.803Z,21.00
2022-08-01T04:15:15.020Z,21.00
2022-08-01T04:18:16.978Z,21.00
2022-08-01T04:21:25.435Z,21.00
2022-08-01T04:24:31.172Z,21.00
2022-08-01T04:27:50.293Z,20.90
2022-08-01T04:30:59.868Z,20.90
2022-08-01T04:34:06.697Z,20.90
2022-08-01T04:37:11.371Z,20.90
2022-08-01T04:40:17.119Z,21.00
2022-08-01T04:43:20.025Z,21.00
2022-08-01T04:46:23.326Z,21.10
2022-08-01T04:49:25.496Z,21.10
2022-08-01T04:52:34.480Z,21.00
2022-08-01T04:55:36.682Z,21.00
2022-08-01T04:58:38.650Z,21.00
2022-08-01T05:01:40.622Z,21.10
2022-08-01T05:04:44.732Z,21.10
2022-08-01T05:07:46.649Z,21.00
2022-08-01T05:10:48.672Z,21.00
2022-08-01T05:13:50.426Z,21.00
2022-08-01T05:16:52.848Z,21.00
2022-08-01T05:19:54.954Z,21.00
2022-08-01T05:22:56.858Z,21.00
2022-08-01T05:25:59.596Z,21.00
2022-08-01T05:29:01.676Z,21.00
2022-08-01T05:32:04.284Z,21.00
2022-08-01T05:35:07.746Z,20.90
2022-08-01T05:38:09.479Z,20.90
2022-08-01T05:41:16.144Z,20.90
2022-08-01T05:44:18.002Z,20.90
2022-08-01T05:47:19.857Z,20.90
2022-08-01T05:50:21.658Z,21.00
2022-08-01T05:53:23.627Z,20.90
2022-08-01T05:56:29.335Z,21.00
2022-08-01T05:59:33.771Z,21.00
2022-08-01T06:02:35.661Z,21.00
2022-08-01T06:05:37.722Z,21.00
2022-08-01T06:08:39.529Z,21.00
2022-08-01T06:11:41.666Z,21.00
2022-08-01T06:14:43.666Z,20.90
2022-08-01T06:17:45.675Z,20.90
2022-08-01T06:20:47.910Z,20.90
2022-08-01T06:23:49.714Z,21.00
2022-08-01T06:26:51.754Z,20.90
2022-08-01T06:29:57.495Z,21.00
2022-08-01T06:33:01.001Z,21.00
2022-08-01T06:36:03.595Z,21.00
2022-08-01T06:39:05.430Z,21.00
2022-08-01T06:42:07.687Z,21.00
2022-08-01T06:45:11.601Z,21.00
2022-08-01T06:48:13.408Z,21.00
2022-08-01T06:51:17.835Z,21.00
2022-08-01T06:54:19.714Z,21.00
2022-08-01T06:57:21.482Z,21.00
2022-08-01T07:00:25.457Z,21.10
2022-08-01T07:03:53.430Z,21.10
2022-08-01T07:06:50.161Z,21.00
2022-08-01T07:09:51.915Z,21.00
2022-08-01T07:12:55.330Z,20.90
2022-08-01T07:15:57.451Z,21.00
2022-08-01T07:18:59.221Z,21.00
2022-08-01T07:22:01.057Z,21.00
2022-08-01T07:25:07.338Z,21.00
2022-08-01T07:28:09.128Z,20.90
2022-08-01T07:31:11.261Z,20.90
2022-08-01T07:34:13.477Z,20.90
2022-08-01T07:37:15.655Z,20.90
2022-08-01T07:40:20.586Z,20.90
2022-08-01T07:43:22.349Z,20.90
2022-08-01T07:46:24.301Z,21.00
2022-08-01T07:49:26.341Z,21.00
2022-08-01T07:52:28.295Z,21.00
2022-08-01T07:55:30.251Z,21.00
2022-08-01T07:58:32.241Z,21.00
2022-08-01T08:01:34.225Z,21.00
2022-08-01T08:04:36.086Z,21.00
2022-08-01T08:07:38.390Z,21.00
2022-08-01T08:10:40.114Z,21.10
2022-08-01T08:13:43.185Z,21.10
2022-08-01T08:16:45.875Z,21.10
2022-08-01T08:19:47.962Z,21.10
2022-08-01T08:22:49.772Z,21.10
2022-08-01T08:25:51.793Z,21.10
2022-08-01T08:28:53.503Z,21.20
2022-08-01T08:32:03.462Z,21.20
2022-08-01T08:35:07.657Z,21.20
2022-08-01T08:38:09.750Z,21.20
2022-08-01T08:41:16.807Z,21.20
2022-08-01T08:44:21.226Z,21.30
2022-08-01T08:47:24.887Z,21.30
2022-08-01T08:50:27.371Z,21.30
2022-08-01T08:53:34.790Z,21.40
2022-08-01T08:56:38.385Z,21.50
2022-08-01T08:59:40.360Z,21.50
2022-08-01T09:02:44.351Z,21.50
2022-08-01T09:05:46.447Z,21.60
2022-08-01T09:08:48.783Z,21.60
2022-08-01T09:11:54.891Z,21.70
2022-08-01T09:15:02.370Z,21.70
2022-08-01T09:18:05.221Z,21.90
2022-08-01T09:21:07.055Z,22.00
2022-08-01T09:24:16.707Z,22.10
2022-08-01T09:27:25.012Z,22.10
2022-08-01T09:30:27.053Z,22.20
2022-08-01T09:33:51.516Z,22.20
2022-08-01T09:37:02.690Z,22.20
2022-08-01T09:40:05.136Z,22.30
2022-08-01T09:43:14.813Z,22.30
2022-08-01T09:46:17.939Z,22.40
2022-08-01T09:49:50.641Z,22.40
2022-08-01T09:52:57.939Z,22.40
2022-08-01T09:56:13.263Z,22.50
2022-08-01T09:59:16.825Z,22.70
2022-08-01T10:02:38.209Z,22.80
2022-08-01T10:05:43.872Z,22.80
2022-08-01T10:08:49.521Z,22.80
2022-08-01T10:11:51.663Z,22.80
2022-08-01T10:14:56.316Z,23.00
2022-08-01T10:18:02.008Z,23.20
2022-08-01T10:21:10.793Z,23.30
2022-08-01T10:24:13.568Z,23.40
2022-08-01T10:27:24.273Z,23.50
2022-08-01T10:30:39.318Z,23.60
2022-08-01T10:33:52.528Z,23.70
2022-08-01T10:36:55.485Z,23.70
2022-08-01T10:40:27.292Z,23.80
2022-08-01T10:43:21.914Z,23.80
2022-08-01T10:46:24.664Z,23.80
2022-08-01T10:49:31.595Z,23.70
2022-08-01T10:52:39.682Z,23.60
2022-08-01T10:56:04.159Z,23.60
2022-08-01T10:59:11.591Z,23.50
2022-08-01T11:02:32.262Z,23.60
2022-08-01T11:05:37.751Z,23.60
2022-08-01T11:08:40.199Z,23.60
2022-08-01T11:12:06.342Z,23.70
2022-08-01T11:15:11.226Z,23.70
2022-08-01T11:18:29.819Z,23.60
2022-08-01T11:21:59.109Z,23.60
2022-08-01T11:25:03.701Z,23.70
2022-08-01T11:28:28.634Z,23.90
2022-08-01T11:31:37.681Z,23.90
2022-08-01T11:34:56.842Z,23.90
2022-08-01T11:38:29.306Z,23.90
2022-08-01T11:41:37.242Z,23.80
2022-08-01T11:44:51.748Z,23.90
2022-08-01T11:47:54.060Z,24.00
2022-08-01T11:50:57.249Z,24.10
2022-08-01T11:53:59.958Z,24.10
2022-08-01T11:57:06.098Z,24.10
2022-08-01T12:00:17.875Z,24.10
2022-08-01T12:03:34.188Z,24.10
2022-08-01T12:06:36.412Z,24.10
2022-08-01T12:09:38.162Z,24.20
2022-08-01T12:12:56.793Z,24.30
2022-08-01T12:16:08.510Z,24.30
2022-08-01T12:19:11.867Z,24.30
2022-08-01T12:22:14.957Z,24.40
2022-08-01T12:25:18.448Z,24.40
2022-08-01T12:28:20.362Z,24.40
2022-08-01T12:31:32.891Z,24.50
2022-08-01T12:34:35.502Z,24.50
2022-08-01T12:37:42.121Z,24.50
2022-08-01T12:40:47.452Z,24.60
2022-08-01T12:43:53.462Z,24.60
2022-08-01T12:46:55.986Z,24.70
2022-08-01T12:49:57.737Z,24.80
2022-08-01T12:53:00.069Z,24.80
2022-08-01T12:56:01.872Z,24.80
2022-08-01T12:59:21.303Z,24.80
2022-08-01T13:02:33.215Z,24.90
2022-08-01T13:05:53.156Z,24.90
2022-08-01T13:08:55.031Z,24.90
2022-08-01T13:12:04.103Z,24.90
2022-08-01T13:15:28.696Z,24.90
2022-08-01T13:18:33.493Z,24.80
2022-08-01T13:21:52.463Z,24.80
2022-08-01T13:25:19.793Z,24.90
2022-08-01T13:28:28.043Z,24.90
2022-08-01T13:31:37.576Z,25.00
2022-08-01T13:34:39.935Z,25.00
2022-08-01T13:37:43.247Z,25.10
2022-08-01T13:40:45.169Z,25.10
2022-08-01T13:43:58.617Z,25.00
2022-08-01T13:47:01.383Z,25.00
2022-08-01T13:50:04.049Z,25.00
2022-08-01T13:53:06.199Z,25.00
2022-08-01T13:56:08.218Z,24.90
2022-08-01T13:59:10.453Z,24.90
2022-08-01T14:02:12.279Z,24.90
2022-08-01T14:05:14.117Z,24.90
2022-08-01T14:08:16.557Z,24.80
2022-08-01T14:11:18.851Z,24.90
2022-08-01T14:14:23.120Z,24.90
2022-08-01T14:17:24.882Z,25.00
2022-08-01T14:20:27.109Z,25.00
2022-08-01T14:23:29.126Z,25.10
2022-08-01T14:26:31.218Z,25.20
2022-08-01T14:30:02.350Z,25.20
2022-08-01T14:32:54.660Z,25.30
2022-08-01T14:36:05.203Z,25.30
2022-08-01T14:39:08.410Z,25.30
2022-08-01T14:42:16.685Z,25.30
2022-08-01T14:45:18.998Z,25.20
2022-08-01T14:48:20.736Z,25.20
2022-08-01T14:51:22.640Z,25.20
2022-08-01T14:54:29.201Z,25.20
2022-08-01T14:57:31.839Z,25.20
2022-08-01T15:00:33.894Z,25.30
2022-08-01T15:03:35.787Z,25.40
2022-08-01T15:06:37.796Z,25.50
2022-08-01T15:09:40.295Z,25.50
2022-08-01T15:12:50.387Z,25.50
2022-08-01T15:15:52.724Z,25.50
2022-08-01T15:18:54.562Z,25.50
2022-08-01T15:21:56.275Z,25.40
2022-08-01T15:25:00.325Z,25.50
2022-08-01T15:28:02.167Z,25.50
2022-08-01T15:31:03.872Z,25.50
2022-08-01T15:37:45.747Z,25.60
2022-08-01T15:40:47.462Z,25.60
2022-08-01T15:43:55.717Z,25.50
2022-08-01T15:46:58.266Z,25.50
2022-08-01T15:50:02.363Z,25.40
2022-08-01T15:53:04.450Z,25.40
2022-08-01T15:56:06.293Z,25.30
2022-08-01T15:59:08.395Z,25.30
2022-08-01T16:02:10.816Z,25.20
2022-08-01T16:05:13.075Z,25.30
2022-08-01T16:08:19.007Z,25.30
2022-08-01T16:11:21.212Z,25.30
2022-08-01T16:14:23.043Z,25.30
2022-08-01T16:17:25.042Z,25.20
2022-08-01T16:20:26.925Z,25.20
2022-08-01T16:23:29.129Z,25.10
2022-08-01T16:26:31.160Z,25.10
2022-08-01T16:29:34.113Z,25.20
2022-08-01T16:32:54.302Z,25.20
2022-08-01T16:35:58.890Z,25.20
2022-08-01T16:39:01.427Z,25.20
2022-08-01T16:42:03.286Z,25.30
2022-08-01T16:45:08.640Z,25.30
2022-08-01T16:48:16.081Z,25.20
2022-08-01T16:51:17.756Z,25.20
2022-08-01T16:54:25.185Z,25.20
2022-08-01T16:57:28.581Z,25.20
2022-08-01T17:00:30.455Z,25.20
2022-08-01T17:03:51.435Z,25.20
2022-08-01T17:06:53.884Z,25.20
2022-08-01T17:09:55.831Z,25.10
2022-08-01T17:12:57.681Z,25.10
2022-08-01T17:15:59.594Z,25.10
2022-08-01T17:19:02.077Z,25.10
2022-08-01T17:22:04.316Z,25.10
2022-08-01T17:25:09.050Z,25.00
2022-08-01T17:28:18.220Z,25.00
2022-08-01T17:31:20.200Z,25.00
2022-08-01T17:34:22.293Z,24.90
2022-08-01T17:37:25.602Z,24.90
2022-08-01T17:40:42.837Z,24.90
2022-08-01T17:43:44.607Z,24.90
2022-08-01T17:46:46.804Z,24.80
2022-08-01T17:49:56.435Z,24.80
2022-08-01T17:52:58.615Z,24.70
2022-08-01T17:56:02.317Z,24.70
2022-08-01T17:59:04.233Z,24.60
2022-08-01T18:02:06.211Z,24.60
2022-08-01T18:05:10.655Z,24.60
2022-08-01T18:08:13.168Z,24.60
2022-08-01T18:11:17.423Z,24.50
2022-08-01T18:14:19.231Z,24.50
2022-08-01T18:17:21.131Z,24.50
2022-08-01T18:20:22.991Z,24.40
2022-08-01T18:23:24.740Z,24.40
2022-08-01T18:26:26.808Z,24.40
2022-08-01T18:29:47.347Z,24.30
2022-08-01T18:32:50.089Z,24.30
2022-08-01T18:35:53.935Z,24.30
2022-08-01T18:38:57.384Z,24.30
2022-08-01T18:42:01.192Z,24.20
2022-08-01T18:45:03.530Z,24.20
2022-08-01T18:48:05.880Z,24.10
2022-08-01T18:51:08.490Z,24.10
2022-08-01T18:54:14.773Z,24.10
2022-08-01T18:57:16.514Z,24.00
2022-08-01T19:00:22.801Z,24.00
2022-08-01T19:03:24.743Z,23.90
2022-08-01T19:06:27.258Z,23.90
2022-08-01T19:09:29.071Z,23.90
2022-08-01T19:12:30.962Z,23.80
2022-08-01T19:15:32.830Z,23.70
2022-08-01T19:18:35.032Z,23.60
2022-08-01T19:21:42.800Z,23.60
2022-08-01T19:24:46.756Z,23.50
2022-08-01T19:27:50.480Z,23.50
2022-08-01T19:30:54.196Z,23.50
2022-08-01T19:33:57.850Z,23.40
2022-08-01T19:37:00.122Z,23.30
2022-08-01T19:40:02.040Z,23.30
2022-08-01T19:43:06.161Z,23.30
2022-08-01T19:46:17.232Z,23.30
2022-08-01T19:49:21.741Z,23.30
2022-08-01T19:52:26.627Z,23.20
2022-08-01T19:55:30.870Z,23.20
2022-08-01T19:58:52.681Z,23.10
2022-08-01T20:02:02.582Z,23.00
2022-08-01T20:05:04.782Z,23.00
2022-08-01T20:08:07.592Z,23.00
2022-08-01T20:11:13.732Z,22.90
2022-08-01T20:14:20.907Z,22.80
2022-08-01T20:17:23.839Z,22.80
2022-08-01T20:20:26.498Z,22.80
2022-08-01T20:23:31.142Z,22.70
2022-08-01T20:26:33.731Z,22.70
2022-08-01T20:29:37.033Z,22.60
2022-08-01T20:32:40.397Z,22.50
2022-08-01T20:35:53.061Z,22.50
2022-08-01T20:38:57.502Z,22.50
2022-08-01T20:42:01.283Z,22.40
2022-08-01T20:45:04.838Z,22.30
2022-08-01T20:48:08.848Z,22.20
2022-08-01T20:51:16.828Z,22.20
2022-08-01T20:54:19.363Z,22.10
2022-08-01T20:57:27.521Z,22.00
2022-08-01T21:00:30.747Z,22.10
2022-08-01T21:03:50.879Z,22.10
2022-08-01T21:07:03.305Z,22.10
2022-08-01T21:10:11.542Z,22.10
2022-08-01T21:13:20.568Z,22.00
2022-08-01T21:16:29.779Z,22.00
2022-08-01T21:19:33.458Z,22.00
2022-08-01T21:23:01.395Z,21.90
2022-08-01T21:26:04.538Z,21.80
2022-08-01T21:29:07.670Z,21.70
2022-08-01T21:32:15.365Z,21.70
2022-08-01T21:35:20.013Z,21.60
2022-08-01T21:38:22.930Z,21.60
2022-08-01T21:41:56.777Z,21.60
2022-08-01T21:44:52.874Z,21.70
2022-08-01T21:47:56.640Z,21.70
2022-08-01T21:51:01.307Z,21.60
2022-08-01T21:54:41.679Z,21.50
2022-08-01T21:58:22.604Z,21.50
2022-08-01T22:01:50.004Z,21.40
2022-08-01T22:05:05.620Z,21.40
2022-08-01T22:08:09.759Z,21.20
2022-08-01T22:11:14.561Z,21.30
2022-08-01T22:14:18.442Z,21.30
2022-08-01T22:17:22.930Z,21.20
2022-08-01T22:20:27.580Z,21.20
2022-08-01T22:23:29.831Z,21.10
2022-08-01T22:26:36.071Z,21.00
2022-08-01T22:29:38.063Z,20.90
2022-08-01T22:32:42.140Z,20.90
2022-08-01T22:35:50.510Z,20.80
2022-08-01T22:38:52.573Z,20.80
2022-08-01T22:42:01.299Z,20.70
2022-08-01T22:45:24.891Z,20.80
2022-08-01T22:48:36.831Z,20.70
2022-08-01T22:51:55.375Z,20.70
2022-08-01T22:55:07.912Z,20.50
2022-08-01T22:58:13.704Z,20.50
2022-08-01T23:01:22.563Z,20.40
2022-08-01T23:04:37.361Z,20.40
2022-08-01T23:07:44.019Z,20.40
2022-08-01T23:10:47.045Z,20.40
2022-08-01T23:13:51.576Z,20.30
2022-08-01T23:16:54.707Z,20.20
2022-08-01T23:20:03.373Z,20.20
2022-08-01T23:23:06.333Z,20.10
2022-08-01T23:26:10.674Z,20.00
2022-08-01T23:29:12.610Z,20.00
2022-08-01T23:32:15.796Z,20.00
2022-08-01T23:35:18.369Z,20.00
2022-08-01T23:38:20.703Z,20.00
2022-08-01T23:41:22.679Z,19.90
2022-08-01T23:44:24.596Z,20.00
2022-08-01T23:47:26.919Z,20.00
2022-08-01T23:50:28.900Z,20.00
2022-08-01T23:53:32.225Z,20.10
2022-08-01T23:56:33.998Z,20.10
2022-08-01T23:59:52.877Z,20.00
